createdAt,value
2018-10-16T00:01:18.021Z,48.62
2018-10-16T00:03:45.805Z,49.04
2018-10-16T00:06:13.518Z,48.74
2018-10-16T00:08:41.246Z,49.18
2018-10-16T00:11:08.966Z,48.89
2018-10-16T00:13:36.761Z,49.23
2018-10-16T00:16:04.655Z,48.98
2018-10-16T00:18:32.441Z,48.68
2018-10-16T00:21:00.131Z,48.94
2018-10-16T00:23:27.843Z,48.95
2018-10-16T00:25:55.584Z,48.59
2018-10-16T00:28:23.275Z,48.48
2018-10-16T00:30:51.041Z,48.81
2018-10-16T00:33:18.750Z,48.39
2018-10-16T00:35:46.451Z,48.15
2018-10-16T00:38:14.229Z,48.69
2018-10-16T00:40:41.981Z,48.48
2018-10-16T00:43:09.641Z,49.06
2018-10-16T00:45:37.462Z,49.13
2018-10-16T00:48:05.473Z,49.17
2018-10-16T00:50:33.212Z,48.94
2018-10-16T00:53:00.909Z,48.79
2018-10-16T00:55:28.665Z,48.95
2018-10-16T00:57:56.475Z,48.41
2018-10-16T01:00:24.203Z,48.91
2018-10-16T01:02:51.892Z,48.99
2018-10-16T01:05:19.562Z,48.84
2018-10-16T01:07:47.189Z,49.18
2018-10-16T01:10:14.840Z,49.23
2018-10-16T01:12:42.621Z,49.72
2018-10-16T01:15:11.048Z,49.70
2018-10-16T01:17:39.256Z,49.73
2018-10-16T01:20:10.068Z,50.22
2018-10-16T01:22:37.967Z,49.91
2018-10-16T01:25:06.854Z,49.68
2018-10-16T01:27:34.569Z,49.70
2018-10-16T01:30:02.256Z,50.26
2018-10-16T01:32:29.946Z,50.24
2018-10-16T01:34:57.604Z,49.91
2018-10-16T01:37:25.300Z,49.83
2018-10-16T01:39:52.931Z,50.30
2018-10-16T01:42:20.670Z,50.44
2018-10-16T01:44:48.414Z,50.25
2018-10-16T01:47:16.155Z,49.84
2018-10-16T01:49:43.862Z,49.83
2018-10-16T01:52:11.563Z,50.47
2018-10-16T01:54:39.286Z,50.40
2018-10-16T01:57:06.953Z,49.64
2018-10-16T01:59:34.674Z,49.56
2018-10-16T02:02:02.972Z,49.04
2018-10-16T02:04:30.642Z,48.98
2018-10-16T02:06:58.354Z,49.30
2018-10-16T02:09:34.539Z,49.29
2018-10-16T02:12:02.240Z,49.18
2018-10-16T02:14:30.097Z,49.75
2018-10-16T02:16:57.791Z,49.67
2018-10-16T02:19:25.623Z,49.25
2018-10-16T02:21:53.370Z,49.23
2018-10-16T02:24:21.051Z,49.22
2018-10-16T02:26:48.739Z,50.20
2018-10-16T02:29:16.572Z,49.89
2018-10-16T02:31:44.297Z,50.09
2018-10-16T02:34:12.026Z,49.72
2018-10-16T02:36:39.711Z,50.05
2018-10-16T02:39:08.592Z,50.76
2018-10-16T02:41:36.394Z,50.33
2018-10-16T02:44:04.913Z,49.62
2018-10-16T02:46:32.555Z,49.93
2018-10-16T02:49:00.239Z,49.24
2018-10-16T02:51:27.901Z,49.96
2018-10-16T02:53:55.655Z,49.78
2018-10-16T02:56:23.315Z,49.90
2018-10-16T02:58:57.819Z,50.59
2018-10-16T03:01:25.847Z,50.35
2018-10-16T03:03:53.588Z,49.49
2018-10-16T03:06:21.307Z,49.60
2018-10-16T03:08:49.049Z,50.17
2018-10-16T03:11:16.974Z,51.14
2018-10-16T03:13:44.709Z,50.27
2018-10-16T03:16:12.350Z,50.73
2018-10-16T03:18:40.014Z,50.24
2018-10-16T03:21:07.707Z,49.96
2018-10-16T03:23:35.350Z,49.67
2018-10-16T03:26:03.118Z,49.50
2018-10-16T03:28:30.938Z,49.80
2018-10-16T03:30:58.632Z,49.44
2018-10-16T03:33:26.378Z,49.59
2018-10-16T03:35:54.224Z,48.97
2018-10-16T03:38:21.949Z,49.22
2018-10-16T03:40:49.621Z,48.27
2018-10-16T03:43:17.353Z,48.93
2018-10-16T03:45:45.095Z,48.46
2018-10-16T03:48:12.801Z,48.71
2018-10-16T03:50:40.532Z,48.84
2018-10-16T03:53:08.288Z,49.08
2018-10-16T03:55:36.009Z,48.66
2018-10-16T03:58:04.286Z,48.97
2018-10-16T04:00:31.957Z,48.78
2018-10-16T04:02:59.621Z,49.24
2018-10-16T04:05:27.291Z,49.03
2018-10-16T04:07:54.981Z,49.42
2018-10-16T04:10:22.715Z,49.40
2018-10-16T04:12:50.405Z,49.58
2018-10-16T04:15:18.126Z,49.15
2018-10-16T04:17:45.777Z,48.95
2018-10-16T04:20:13.423Z,48.47
2018-10-16T04:22:41.051Z,47.94
2018-10-16T04:25:09.051Z,48.08
2018-10-16T04:27:36.743Z,47.49
2018-10-16T04:30:05.429Z,47.82
2018-10-16T04:32:33.137Z,47.60
2018-10-16T04:35:00.861Z,47.86
2018-10-16T04:37:28.588Z,48.37
2018-10-16T04:39:56.215Z,48.14
2018-10-16T04:42:23.871Z,48.00
2018-10-16T04:44:51.551Z,48.33
2018-10-16T04:47:19.309Z,48.14
2018-10-16T04:49:47.002Z,47.57
2018-10-16T04:52:14.665Z,47.92
2018-10-16T04:54:42.263Z,47.24
2018-10-16T04:57:09.886Z,46.85
2018-10-16T04:59:37.570Z,46.77
2018-10-16T05:02:05.583Z,47.45
2018-10-16T05:04:33.244Z,46.65
2018-10-16T05:07:01.103Z,47.44
2018-10-16T05:09:28.742Z,47.82
2018-10-16T05:11:56.480Z,48.29
2018-10-16T05:14:24.137Z,48.80
2018-10-16T05:16:51.892Z,48.49
2018-10-16T05:19:19.563Z,48.77
2018-10-16T05:21:47.444Z,48.97
2018-10-16T05:24:15.185Z,49.04
2018-10-16T05:26:42.952Z,48.38
2018-10-16T05:29:10.984Z,48.60
2018-10-16T05:31:38.853Z,49.22
2018-10-16T05:34:07.442Z,49.24
2018-10-16T05:36:35.053Z,49.37
2018-10-16T05:39:03.792Z,48.57
2018-10-16T05:41:31.502Z,48.56
2018-10-16T05:43:59.156Z,47.98
2018-10-16T05:46:26.910Z,48.66
2018-10-16T05:48:54.560Z,48.05
2018-10-16T05:51:22.304Z,47.17
2018-10-16T05:53:50.005Z,47.88
2018-10-16T05:56:17.673Z,47.08
2018-10-16T05:58:45.325Z,47.26
2018-10-16T06:01:13.163Z,47.13
2018-10-16T06:03:40.821Z,47.27
2018-10-16T06:06:08.481Z,46.68
2018-10-16T06:08:36.179Z,46.71
2018-10-16T06:11:04.145Z,47.09
2018-10-16T06:13:31.909Z,46.44
2018-10-16T06:15:59.645Z,46.59
2018-10-16T06:18:27.335Z,46.50
2018-10-16T06:20:54.983Z,46.29
2018-10-16T06:23:22.628Z,45.79
2018-10-16T06:25:50.318Z,46.75
2018-10-16T06:28:20.489Z,45.35
2018-10-16T06:30:48.175Z,45.53
2018-10-16T06:33:18.141Z,45.45
2018-10-16T06:35:45.736Z,45.99
2018-10-16T06:38:13.378Z,45.95
2018-10-16T06:40:41.121Z,44.94
2018-10-16T06:43:08.768Z,44.95
2018-10-16T06:45:36.487Z,45.08
2018-10-16T06:48:04.818Z,44.88
2018-10-16T06:50:32.543Z,45.00
2018-10-16T06:53:07.144Z,45.14
2018-10-16T06:55:34.865Z,44.88
2018-10-16T06:58:03.046Z,44.98
2018-10-16T07:00:30.768Z,43.67
2018-10-16T07:02:58.435Z,43.65
2018-10-16T07:05:26.151Z,43.17
2018-10-16T07:07:53.870Z,43.20
2018-10-16T07:10:21.656Z,42.86
2018-10-16T07:12:49.401Z,42.63
2018-10-16T07:15:17.052Z,43.16
2018-10-16T07:17:44.820Z,42.53
2018-10-16T07:20:12.922Z,41.83
2018-10-16T07:22:40.552Z,42.57
2018-10-16T07:25:08.765Z,41.66
2018-10-16T07:27:36.453Z,41.48
2018-10-16T07:30:06.477Z,41.72
2018-10-16T07:32:34.100Z,42.11
2018-10-16T07:35:01.842Z,42.01
2018-10-16T07:37:29.533Z,41.71
2018-10-16T07:39:57.231Z,41.29
2018-10-16T07:42:24.918Z,41.26
2018-10-16T07:44:52.579Z,40.44
2018-10-16T07:47:20.205Z,39.67
2018-10-16T07:49:47.934Z,38.78
2018-10-16T07:52:15.631Z,38.67
2018-10-16T07:54:43.294Z,38.04
2018-10-16T07:57:11.126Z,38.62
2018-10-16T07:59:38.677Z,38.00
2018-10-16T08:02:06.361Z,37.83
2018-10-16T08:04:34.023Z,37.65
2018-10-16T08:07:01.639Z,37.82
2018-10-16T08:09:29.304Z,36.76
2018-10-16T08:11:56.962Z,37.40
2018-10-16T08:14:24.646Z,37.23
2018-10-16T08:16:52.324Z,37.22
2018-10-16T08:19:19.961Z,37.30
2018-10-16T08:21:47.740Z,37.19
2018-10-16T08:24:15.380Z,37.36
2018-10-16T08:26:43.014Z,38.10
2018-10-16T08:29:10.692Z,37.52
2018-10-16T08:31:38.466Z,37.98
2018-10-16T08:34:06.450Z,37.93
2018-10-16T08:36:34.565Z,37.57
2018-10-16T08:39:26.069Z,37.04
2018-10-16T08:44:43.510Z,36.93
2018-10-16T08:47:28.926Z,38.25
2018-10-16T08:50:14.142Z,36.90
2018-10-16T08:55:16.028Z,37.17
2018-10-16T08:57:43.694Z,36.18
2018-10-16T09:00:11.381Z,36.52
2018-10-16T09:02:39.058Z,36.03
2018-10-16T09:05:06.878Z,36.56
2018-10-16T09:07:34.510Z,36.53
2018-10-16T09:10:03.511Z,37.12
2018-10-16T09:12:31.242Z,36.07
2018-10-16T09:14:58.946Z,36.11
2018-10-16T09:17:26.624Z,35.93
2018-10-16T09:19:54.228Z,35.39
2018-10-16T09:22:21.878Z,34.62
2018-10-16T09:24:49.578Z,34.68
2018-10-16T09:27:17.250Z,34.46
2018-10-16T09:29:45.365Z,33.96
2018-10-16T09:32:13.048Z,34.59
2018-10-16T09:34:40.691Z,34.54
2018-10-16T09:37:08.472Z,33.81
2018-10-16T09:39:36.203Z,33.71
2018-10-16T09:42:04.285Z,33.70
2018-10-16T09:44:31.919Z,33.07
2018-10-16T09:46:59.572Z,32.04
2018-10-16T09:49:27.224Z,31.29
2018-10-16T09:51:54.916Z,31.97
2018-10-16T09:54:22.548Z,31.35
2018-10-16T09:56:50.309Z,31.25
2018-10-16T09:59:18.005Z,31.07
2018-10-16T10:01:47.425Z,31.37
2018-10-16T10:04:15.220Z,31.32
2018-10-16T10:06:42.822Z,31.12
2018-10-16T10:09:12.067Z,31.21
2018-10-16T10:11:39.960Z,32.00
2018-10-16T10:14:08.016Z,31.47
2018-10-16T10:16:36.171Z,31.06
2018-10-16T10:19:04.138Z,31.73
2018-10-16T10:21:31.840Z,30.94
2018-10-16T10:23:59.540Z,31.71
2018-10-16T10:26:27.282Z,31.89
2018-10-16T10:28:55.187Z,30.95
2018-10-16T10:31:22.858Z,31.37
2018-10-16T10:33:50.787Z,30.86
2018-10-16T10:36:18.474Z,30.45
2018-10-16T10:38:46.353Z,30.98
2018-10-16T10:41:13.993Z,30.59
2018-10-16T10:43:41.747Z,30.42
2018-10-16T10:46:09.408Z,30.32
2018-10-16T10:48:37.419Z,29.92
2018-10-16T10:51:05.708Z,29.87
2018-10-16T10:53:33.267Z,30.20
2018-10-16T10:56:00.955Z,29.76
2018-10-16T10:58:28.682Z,29.81
2018-10-16T11:00:56.334Z,29.44
2018-10-16T11:03:24.219Z,28.50
2018-10-16T11:05:51.708Z,26.61
2018-10-16T11:08:19.371Z,24.93
2018-10-16T11:10:47.018Z,23.25
2018-10-16T11:13:14.634Z,22.73
2018-10-16T11:15:42.291Z,20.64
2018-10-16T11:18:09.919Z,19.43
2018-10-16T11:20:37.506Z,18.04
2018-10-16T11:23:05.323Z,17.70
2018-10-16T11:25:32.982Z,15.72
2018-10-16T11:28:00.671Z,15.32
2018-10-16T11:30:28.325Z,15.71
2018-10-16T11:32:55.954Z,14.36
2018-10-16T11:35:23.609Z,13.53
2018-10-16T11:37:51.316Z,12.83
2018-10-16T11:40:18.990Z,12.17
2018-10-16T11:42:46.650Z,11.60
2018-10-16T11:45:14.480Z,11.23
2018-10-16T11:47:42.165Z,11.83
2018-10-16T11:50:10.842Z,12.00
2018-10-16T11:52:38.467Z,11.18
2018-10-16T11:55:06.565Z,10.46
2018-10-16T11:57:34.167Z,10.05
2018-10-16T12:00:01.852Z,10.56
2018-10-16T12:02:29.522Z,10.01
2018-10-16T12:04:57.220Z,10.13
2018-10-16T12:07:24.888Z,11.05
2018-10-16T12:09:52.579Z,10.61
2018-10-16T12:12:20.251Z,9.90
2018-10-16T12:14:47.871Z,9.76
2018-10-16T12:17:19.362Z,9.47
2018-10-16T12:19:50.327Z,11.38
2018-10-16T12:22:17.960Z,10.97
2018-10-16T12:24:45.628Z,10.48
2018-10-16T12:27:13.515Z,9.35
2018-10-16T12:29:41.112Z,8.98
2018-10-16T12:32:08.812Z,9.32
2018-10-16T12:34:36.504Z,9.99
2018-10-16T12:37:04.713Z,9.61
2018-10-16T12:39:32.393Z,9.14
2018-10-16T12:42:00.061Z,9.63
2018-10-16T12:44:27.661Z,8.93
2018-10-16T12:46:55.411Z,8.61
2018-10-16T12:49:23.040Z,8.81
2018-10-16T12:51:50.866Z,8.44
2018-10-16T12:54:18.461Z,8.97
2018-10-16T12:56:46.138Z,9.17
2018-10-16T12:59:13.876Z,9.17
2018-10-16T13:01:41.559Z,8.31
2018-10-16T13:04:09.357Z,8.87
2018-10-16T13:06:37.005Z,8.64
2018-10-16T13:09:07.371Z,8.55
2018-10-16T13:11:34.967Z,8.62
2018-10-16T13:14:02.650Z,8.83
2018-10-16T13:16:30.303Z,8.73
2018-10-16T13:18:58.172Z,8.57
2018-10-16T13:21:26.043Z,8.64
2018-10-16T13:23:53.810Z,8.64
2018-10-16T13:26:21.504Z,8.72
2018-10-16T13:28:49.217Z,9.03
2018-10-16T13:31:16.934Z,9.10
2018-10-16T13:33:44.620Z,9.26
2018-10-16T13:36:12.616Z,8.92
2018-10-16T13:38:40.403Z,9.03
2018-10-16T13:41:08.055Z,8.29
2018-10-16T13:43:35.630Z,8.69
2018-10-16T13:46:03.737Z,8.33
2018-10-16T13:48:31.466Z,8.50
2018-10-16T13:50:59.096Z,8.66
2018-10-16T13:53:26.706Z,8.16
2018-10-16T13:55:54.378Z,8.43
2018-10-16T13:58:22.046Z,8.50
2018-10-16T14:00:49.685Z,8.87
2018-10-16T14:03:17.302Z,8.32
2018-10-16T14:05:44.926Z,9.31
2018-10-16T14:08:12.676Z,9.69
2018-10-16T14:10:40.333Z,10.21
2018-10-16T14:13:08.018Z,9.89
2018-10-16T14:15:35.640Z,10.33
2018-10-16T14:18:03.389Z,10.37
2018-10-16T14:20:31.028Z,9.57
2018-10-16T14:22:58.653Z,10.69
2018-10-16T14:25:26.311Z,10.48
2018-10-16T14:27:54.010Z,10.73
2018-10-16T14:30:21.687Z,10.94
2018-10-16T14:32:49.291Z,10.74
2018-10-16T14:35:17.095Z,10.81
2018-10-16T14:37:44.755Z,10.96
2018-10-16T14:40:13.825Z,10.89
2018-10-16T14:42:41.776Z,10.68
2018-10-16T14:45:10.425Z,11.73
2018-10-16T14:47:38.095Z,12.20
2018-10-16T14:50:06.499Z,13.26
2018-10-16T14:52:34.331Z,13.39
2018-10-16T14:55:02.276Z,13.13
2018-10-16T14:57:29.975Z,14.88
2018-10-16T14:59:57.663Z,16.59
2018-10-16T15:02:25.369Z,19.03
2018-10-16T15:04:53.067Z,20.49
2018-10-16T15:07:20.691Z,23.12
2018-10-16T15:09:48.492Z,24.20
2018-10-16T15:12:16.147Z,25.07
2018-10-16T15:14:43.841Z,24.79
2018-10-16T15:17:11.511Z,26.17
2018-10-16T15:19:39.179Z,26.51
2018-10-16T15:22:06.942Z,27.87
2018-10-16T15:24:34.565Z,29.08
2018-10-16T15:27:02.182Z,30.20
2018-10-16T15:29:29.838Z,30.38
2018-10-16T15:31:57.529Z,30.61
2018-10-16T15:34:25.290Z,31.00
2018-10-16T15:36:52.978Z,31.76
2018-10-16T15:39:20.690Z,32.19
2018-10-16T15:41:48.388Z,32.64
2018-10-16T15:44:16.090Z,33.28
2018-10-16T15:46:43.748Z,34.10
2018-10-16T15:49:11.515Z,34.91
2018-10-16T15:51:39.362Z,35.79
2018-10-16T15:54:07.182Z,35.76
2018-10-16T15:56:34.875Z,36.89
2018-10-16T15:59:02.550Z,36.91
2018-10-16T16:01:30.262Z,39.26
2018-10-16T16:03:58.118Z,40.68
2018-10-16T16:06:25.779Z,40.45
2018-10-16T16:08:53.528Z,40.83
2018-10-16T16:11:21.188Z,40.91
2018-10-16T16:13:48.900Z,41.45
2018-10-16T16:16:16.774Z,42.41
2018-10-16T16:18:44.500Z,42.72
2018-10-16T16:21:12.250Z,43.74
2018-10-16T16:23:39.940Z,43.38
2018-10-16T16:26:07.794Z,44.01
2018-10-16T16:28:35.694Z,44.48
2018-10-16T16:31:03.520Z,45.64
2018-10-16T16:33:31.284Z,45.93
2018-10-16T16:35:59.172Z,46.44
2018-10-16T16:38:26.842Z,46.54
2018-10-16T16:40:54.645Z,46.49
2018-10-16T16:43:22.435Z,46.56
2018-10-16T16:45:50.201Z,46.39
2018-10-16T16:48:17.915Z,46.58
2018-10-16T16:50:45.719Z,46.97
2018-10-16T16:53:13.573Z,47.49
2018-10-16T16:55:41.474Z,46.95
2018-10-16T16:58:09.530Z,47.45
2018-10-16T17:00:37.224Z,47.75
2018-10-16T17:03:05.120Z,48.05
2018-10-16T17:05:32.911Z,48.33
2018-10-16T17:08:01.148Z,49.18
2018-10-16T17:10:28.850Z,49.41
2018-10-16T17:12:57.004Z,49.37
2018-10-16T17:15:24.865Z,49.87
2018-10-16T17:17:53.037Z,49.84
2018-10-16T17:20:20.825Z,50.07
2018-10-16T17:22:48.669Z,49.54
2018-10-16T17:25:16.534Z,49.92
2018-10-16T17:27:44.805Z,49.81
2018-10-16T17:30:14.640Z,50.43
2018-10-16T17:32:42.970Z,50.81
2018-10-16T17:35:11.349Z,50.24
2018-10-16T17:37:39.838Z,50.36
2018-10-16T17:40:10.224Z,50.28
2018-10-16T17:42:38.012Z,51.18
2018-10-16T17:45:07.895Z,51.48
2018-10-16T17:47:35.957Z,52.40
2018-10-16T17:50:04.816Z,52.51
2018-10-16T17:52:32.713Z,52.70
2018-10-16T17:55:00.719Z,52.64
2018-10-16T17:57:28.972Z,53.14
2018-10-16T17:59:56.743Z,53.42
2018-10-16T18:02:24.481Z,53.56
2018-10-16T18:04:52.258Z,53.57
2018-10-16T18:07:23.587Z,53.82
2018-10-16T18:09:51.504Z,53.83
2018-10-16T18:12:19.356Z,54.33
2018-10-16T18:14:47.245Z,54.82
2018-10-16T18:17:14.995Z,54.35
2018-10-16T18:19:42.764Z,54.52
2018-10-16T18:22:10.830Z,54.88
2018-10-16T18:24:38.912Z,54.99
2018-10-16T18:27:06.763Z,54.69
2018-10-16T18:29:34.483Z,55.53
2018-10-16T18:32:02.240Z,55.37
2018-10-16T18:34:30.379Z,55.64
2018-10-16T18:36:58.287Z,56.20
2018-10-16T18:39:26.199Z,56.19
2018-10-16T18:41:53.993Z,56.62
2018-10-16T18:44:21.704Z,56.64
2018-10-16T18:46:49.782Z,56.18
2018-10-16T18:49:17.540Z,56.29
2018-10-16T18:51:45.491Z,56.64
2018-10-16T18:54:13.283Z,56.31
2018-10-16T18:56:41.429Z,56.64
2018-10-16T18:59:09.297Z,56.41
2018-10-16T19:01:37.333Z,57.39
2018-10-16T19:04:05.965Z,57.53
2018-10-16T19:06:33.947Z,57.61
2018-10-16T19:09:02.067Z,57.34
2018-10-16T19:11:30.155Z,58.01
2018-10-16T19:13:58.197Z,57.66
2018-10-16T19:16:26.348Z,58.13
2018-10-16T19:18:54.332Z,58.08
2018-10-16T19:21:22.509Z,58.86
2018-10-16T19:23:50.657Z,58.45
2018-10-16T19:26:18.618Z,58.23
2018-10-16T19:28:46.707Z,58.34
2018-10-16T19:31:14.806Z,58.69
2018-10-16T19:33:43.107Z,59.29
2018-10-16T19:36:11.646Z,59.05
2018-10-16T19:38:39.734Z,59.39
2018-10-16T19:41:07.706Z,59.70
2018-10-16T19:43:35.799Z,59.40
2018-10-16T19:46:03.773Z,59.57
2018-10-16T19:48:32.101Z,59.42
2018-10-16T19:51:00.135Z,59.63
2018-10-16T19:53:28.075Z,59.78
2018-10-16T19:55:56.233Z,59.64
2018-10-16T19:58:23.904Z,60.39
2018-10-16T20:00:55.252Z,60.05
2018-10-16T20:03:23.142Z,59.69
2018-10-16T20:05:50.933Z,60.18
2018-10-16T20:08:18.866Z,59.86
2018-10-16T20:10:46.874Z,60.38
2018-10-16T20:13:15.968Z,60.79
2018-10-16T20:15:44.139Z,61.64
2018-10-16T20:18:12.006Z,61.51
2018-10-16T20:20:39.928Z,61.99
2018-10-16T20:23:07.792Z,62.62
2018-10-16T20:25:35.687Z,62.26
2018-10-16T20:28:04.365Z,62.82
2018-10-16T20:30:32.225Z,63.47
2018-10-16T20:33:00.074Z,63.34
2018-10-16T20:35:27.891Z,62.68
2018-10-16T20:37:55.724Z,62.96
2018-10-16T20:40:23.452Z,63.25
2018-10-16T20:42:51.356Z,63.08
2018-10-16T20:45:19.133Z,63.23
2018-10-16T20:47:46.777Z,63.02
2018-10-16T20:50:14.518Z,63.22
2018-10-16T20:52:42.211Z,63.24
2018-10-16T20:55:09.976Z,63.42
2018-10-16T20:57:38.049Z,63.36
2018-10-16T21:00:06.678Z,63.01
2018-10-16T21:02:34.284Z,62.84
2018-10-16T21:05:02.055Z,63.34
2018-10-16T21:07:29.775Z,63.49
2018-10-16T21:09:57.365Z,63.51
2018-10-16T21:12:25.046Z,63.23
2018-10-16T21:14:52.738Z,63.42
2018-10-16T21:17:20.454Z,63.27
2018-10-16T21:19:48.245Z,63.52
2018-10-16T21:22:15.902Z,63.62
2018-10-16T21:24:43.526Z,63.55
2018-10-16T21:27:11.969Z,63.33
2018-10-16T21:29:39.645Z,62.78
2018-10-16T21:32:08.114Z,62.78
2018-10-16T21:34:35.816Z,63.07
2018-10-16T21:37:03.671Z,63.40
2018-10-16T21:39:31.334Z,63.37
2018-10-16T21:41:58.990Z,63.59
2018-10-16T21:44:26.650Z,64.35
2018-10-16T21:46:54.327Z,64.34
2018-10-16T21:49:22.654Z,63.71
2018-10-16T21:51:50.658Z,64.07
2018-10-16T21:54:18.369Z,64.43
2018-10-16T21:56:46.291Z,64.15
2018-10-16T21:59:14.058Z,64.56
2018-10-16T22:01:47.452Z,64.33
2018-10-16T22:04:15.186Z,64.60
2018-10-16T22:06:42.911Z,65.10
2018-10-16T22:09:12.334Z,64.71
2018-10-16T22:11:40.038Z,64.83
2018-10-16T22:14:08.438Z,65.22
2018-10-16T22:16:36.166Z,65.51
2018-10-16T22:19:04.343Z,65.29
2018-10-16T22:21:32.016Z,65.35
2018-10-16T22:23:59.870Z,65.56
2018-10-16T22:26:27.562Z,65.79
2018-10-16T22:28:55.245Z,65.63
2018-10-16T22:31:23.052Z,65.74
2018-10-16T22:33:50.730Z,66.36
2018-10-16T22:36:18.370Z,65.97
2018-10-16T22:38:46.035Z,65.84
2018-10-16T22:41:13.742Z,66.22
2018-10-16T22:43:41.405Z,66.21
2018-10-16T22:46:09.133Z,65.96
2018-10-16T22:48:36.705Z,66.83
2018-10-16T22:51:04.461Z,66.17
2018-10-16T22:53:32.121Z,66.64
2018-10-16T22:55:59.805Z,66.49
2018-10-16T22:58:27.475Z,66.46
2018-10-16T23:00:55.234Z,66.13
2018-10-16T23:03:22.845Z,65.93
2018-10-16T23:05:50.513Z,65.65
2018-10-16T23:08:18.185Z,66.33
2018-10-16T23:10:45.825Z,65.60
2018-10-16T23:13:13.475Z,65.64
2018-10-16T23:15:41.133Z,65.67
2018-10-16T23:18:08.771Z,65.58
2018-10-16T23:20:36.490Z,65.96
2018-10-16T23:23:04.942Z,65.83
2018-10-16T23:25:32.650Z,66.53
2018-10-16T23:28:00.478Z,66.26
2018-10-16T23:30:28.144Z,66.14
2018-10-16T23:32:55.840Z,66.31
2018-10-16T23:35:23.532Z,65.78
2018-10-16T23:37:51.230Z,65.90
2018-10-16T23:40:19.004Z,65.88
2018-10-16T23:42:46.722Z,66.40
2018-10-16T23:45:14.446Z,65.98
2018-10-16T23:47:42.163Z,66.21
2018-10-16T23:50:09.917Z,66.50
2018-10-16T23:52:37.590Z,66.58
2018-10-16T23:55:07.936Z,66.79
2018-10-16T23:57:35.616Z,66.99
